Flight Track Log - Related Links

Times and Time Zones

All times are in EDT time to prevent confusion due to time zone crossing. See the N789EX flight status page for this flight to view local times or setup timezone preferences in your user account.

Time Position Orientation Groundspeed Altitude Reporting Facility
EDT Latitude Longitude Course Direction KTS MPH feet Rate Location/Type
Fri 12:31:32 PM 33.6619 -101.7964 North 207 238 4,200  Level Fort Worth Center
Fri 12:32:26 PM 33.6686 -101.7544 85° East 153 176 7,200 2,874 Climbing Fort Worth Center
Fri 12:33:00 PM 33.7706 -101.8000 North  Level FlightAware Approximate
Fri 12:33:31 PM 33.7314 -101.7508 North 222 255 9,900  Level Fort Worth Center
Fri 12:34:00 PM 33.8902 -101.7967 North  Level FlightAware Approximate
Fri 12:34:33 PM 33.8203 -101.7467 North 306 352 12,400  Level Fort Worth Center
Fri 12:35:00 PM 34.0092 -101.7807 North  Level FlightAware Approximate
Fri 12:35:36 PM 33.9219 -101.7444 North 364 419 15,600  Level Fort Worth Center
Fri 12:36:00 PM 34.1285 -101.7688 North  Level FlightAware Approximate
Fri 12:36:38 PM 34.0422 -101.7394 North 405 466 18,500  Level Fort Worth Center
Fri 12:37:40 PM 34.1606 -101.7356 North 424 488 21,400 2,516 Climbing Fort Worth Center
Fri 12:38:42 PM 34.2692 -101.7322 North 436 502 23,700 2,516 Climbing Fort Worth Center
Fri 12:39:44 PM 34.4231 -101.7258 North 460 529 26,600 2,419 Climbing Fort Worth Center
Fri 12:40:46 PM 34.5542 -101.7222 North 467 537 28,700 1,984 Climbing Fort Worth Center
Fri 12:41:48 PM 34.6883 -101.7161 North 481 554 30,700 1,895 Climbing Fort Worth Center
Fri 12:42:21 PM 34.7692 -101.7156 360° North 483 556 31,700 1,768 Climbing Albuquerque Center
Fri 12:43:23 PM 34.9086 -101.7103 North 496 571 33,500 1,790 Climbing Albuquerque Center
Fri 12:44:25 PM 35.0500 -101.7050 North 505 581 35,400 1,210 Climbing Albuquerque Center
Fri 12:45:27 PM 35.1897 -101.7003 North 504 580 36,000 726 Climbing Albuquerque Center
Fri 12:46:29 PM 35.3067 -101.7597 337° Northwest 465 535 36,900 1,355 Climbing Albuquerque Center
Fri 12:47:31 PM 35.4178 -101.8625 323° Northwest 438 504 38,800 1,452 Climbing Albuquerque Center
Fri 12:48:33 PM 35.5128 -101.9500 323° Northwest 429 494 39,900 581 Climbing Albuquerque Center
Fri 12:49:35 PM 35.5919 -102.0267 322° Northwest 424 488 40,000 48 Climbing Albuquerque Center
Fri 12:50:37 PM 35.7086 -102.1328 324° Northwest 432 497 40,000  Level Albuquerque Center
Fri 12:51:40 PM 35.8061 -102.2228 323° Northwest 434 499 40,000  Level Albuquerque Center
Fri 12:52:42 PM 35.9019 -102.3128 323° Northwest 434 499 40,000  Level Albuquerque Center
Fri 12:53:44 PM 35.9986 -102.4033 323° Northwest 435 501 40,000  Level Albuquerque Center
Fri 12:54:46 PM 36.0956 -102.4928 323° Northwest 435 501 40,000  Level Albuquerque Center
Fri 12:55:48 PM 36.2125 -102.6011 323° Northwest 435 501 40,000  Level Albuquerque Center
Fri 12:56:50 PM 36.3092 -102.6917 323° Northwest 436 502 40,000  Level Albuquerque Center
Fri 12:57:52 PM 36.4067 -102.7847 322° Northwest 437 503 40,000  Level Albuquerque Center
Fri 12:58:54 PM 36.5056 -102.8786 323° Northwest 445 512 40,000  Level Albuquerque Center
Fri 12:59:56 PM 36.6044 -102.9733 322° Northwest 449 517 40,000  Level Albuquerque Center
Fri 01:00:58 PM 36.7119 -103.0750 323° Northwest 449 517 40,000  Level Albuquerque Center
Fri 01:02:00 PM 36.7997 -103.2036 310° West 438 504 40,000  Level Albuquerque Center
Fri 01:03:02 PM 36.8692 -103.3192 307° West 438 504 40,000  Level Albuquerque Center
Fri 01:04:05 PM 36.9500 -103.4533 307° West 433 498 40,000  Level Albuquerque Center
Fri 01:09:41 PM 37.3535 -104.1364 306° West 442 509 40,000  Level FlightAware ADS-B (EGHH / BOH)
Fri 01:10:58 PM 37.4486 -104.2997 306° West 445 512 40,000  Level FlightAware ADS-B (EGHH / BOH)
Fri 01:11:57 PM 37.5152 -104.4145 306° West 447 514 40,000  Level FlightAware ADS-B (EGHH / BOH)
Fri 01:12:29 PM 37.5581 -104.4888 306° West 446 513 40,000  Level FlightAware ADS-B (EGHH / BOH)
Fri 01:13:06 PM 37.6048 -104.5699 306° West 446 513 40,000  Level FlightAware ADS-B (EGHH / BOH)
Fri 01:14:21 PM 37.6941 -104.7271 305° West 443 510 40,000  Level FlightAware ADS-B (EGHH / BOH)
Fri 01:14:52 PM 37.7220 -104.7766 305° West 440 506 40,000  Level FlightAware ADS-B (EGHH / BOH)
Fri 01:15:40 PM 37.7816 -104.8825 305° West 442 509 40,000  Level FlightAware ADS-B (EGHH / BOH)
Fri 01:16:34 PM 37.8460 -104.9972 305° West 446 513 40,000  Level FlightAware ADS-B (EGHH / BOH)
Fri 01:17:43 PM 37.9301 -105.1476 305° West 444 511 40,000  Level FlightAware ADS-B (EGHH / BOH)
Fri 01:18:20 PM 37.9713 -105.2216 305° West 446 513 40,000  Level FlightAware ADS-B (KGUC)
Fri 01:18:59 PM 38.0239 -105.3163 305° West 446 513 40,000  Level FlightAware ADS-B (EGHH / BOH)
Fri 01:19:31 PM 38.0619 -105.3849 305° West 447 514 40,000  Level FlightAware ADS-B (KGUC)
Fri 01:20:20 PM 38.1114 -105.4745 305° West 448 516 40,000  Level FlightAware ADS-B (EGHH / BOH)
Fri 01:21:07 PM 38.1231 -105.4956 305° West 448 516 40,000  Level FlightAware ADS-B (KGUC)
Fri 01:21:42 PM 38.2111 -105.6556 305° West 448 516 40,000  Level FlightAware ADS-B (EGHH / BOH)
Fri 01:22:20 PM 38.2516 -105.7295 305° West 449 517 40,000  Level FlightAware ADS-B
Fri 01:23:02 PM 38.3097 -105.8356 305° West 450 518 40,000  Level FlightAware ADS-B
Fri 01:24:07 PM 38.3888 -105.9810 305° West 454 522 40,000  Level FlightAware ADS-B
Fri 01:24:38 PM 38.4218 -106.0417 305° West 456 525 40,000  Level FlightAware ADS-B
Fri 01:25:08 PM 38.4616 -106.1152 305° West 458 527 40,000  Level FlightAware ADS-B
Fri 01:25:38 PM 38.4988 -106.1840 305° West 457 526 40,000  Level FlightAware ADS-B
Fri 01:26:26 PM 38.5529 -106.2842 305° West 456 525 40,000  Level FlightAware ADS-B (EGHH / BOH)
Fri 01:26:56 PM 38.5903 -106.3539 304° West 457 526 40,000  Level FlightAware ADS-B
Fri 01:27:27 PM 38.6270 -106.4221 304° West 454 522 40,000  Level FlightAware ADS-B
Fri 01:28:06 PM 38.6742 -106.5104 304° West 453 521 40,000  Level FlightAware ADS-B
Fri 01:28:39 PM 38.7131 -106.5831 304° West 452 520 40,000  Level FlightAware ADS-B
Fri 01:29:09 PM 38.7484 -106.6492 304° West 452 520 40,000  Level FlightAware ADS-B
Fri 01:29:42 PM 38.7843 -106.7169 304° West 452 520 40,000  Level FlightAware ADS-B
Fri 01:30:12 PM 38.8226 -106.7885 305° West 453 521 40,000  Level FlightAware ADS-B
Fri 01:30:45 PM 38.8620 -106.8617 305° West 452 520 40,000  Level FlightAware ADS-B
Fri 01:31:15 PM 38.8952 -106.9233 305° West 452 520 40,000  Level FlightAware ADS-B
Fri 01:31:51 PM 38.9388 -107.0044 305° West 452 520 40,000  Level FlightAware ADS-B
Fri 01:32:21 PM 38.9744 -107.0712 304° West 453 521 40,000  Level FlightAware ADS-B
Fri 01:32:52 PM 39.0108 -107.1393 304° West 455 524 40,000  Level FlightAware ADS-B (KGUC)
Fri 01:33:32 PM 39.0578 -107.2277 304° West 457 526 40,000  Level FlightAware ADS-B
Fri 01:34:03 PM 39.0965 -107.3007 304° West 457 526 40,000  Level FlightAware ADS-B
Fri 01:34:33 PM 39.1309 -107.3665 304° West 457 526 40,000  Level FlightAware ADS-B
Fri 01:34:41 PM 39.1284 -107.3616 304° West 457 526 40,000  Level FlightAware ADS-B (EGHH / BOH)
Fri 01:35:13 PM 39.1764 -107.4554 303° West 456 525 40,000  Level FlightAware ADS-B
Fri 01:35:45 PM 39.2078 -107.5164 303° West 457 526 40,000  Level FlightAware ADS-B
Fri 01:36:15 PM 39.2504 -107.5997 303° West 459 528 40,000  Level FlightAware ADS-B
Fri 01:36:49 PM 39.2901 -107.6774 303° West 459 528 40,000  Level FlightAware ADS-B
Fri 01:37:19 PM 39.3208 -107.7375 303° West 458 527 40,000  Level FlightAware ADS-B
Fri 01:37:49 PM 39.3553 -107.8054 303° West 455 524 40,000  Level FlightAware ADS-B
Fri 01:38:19 PM 39.3936 -107.8815 303° West 455 524 40,000  Level FlightAware ADS-B
Fri 01:38:51 PM 39.4299 -107.9550 302° West 458 527 40,000  Level FlightAware ADS-B
Fri 01:39:22 PM 39.4662 -108.0278 303° West 459 528 40,000  Level FlightAware ADS-B
Fri 01:39:52 PM 39.5012 -108.0953 304° West 460 529 40,000  Level FlightAware ADS-B
Fri 01:40:22 PM 39.5302 -108.1511 303° West 462 532 40,000  Level FlightAware ADS-B
Fri 01:40:55 PM 39.5726 -108.2349 303° West 463 533 40,000  Level FlightAware ADS-B
Fri 01:41:36 PM 39.6189 -108.3277 303° West 462 532 40,000  Level FlightAware ADS-B
Fri 01:42:06 PM 39.6518 -108.3934 303° West 457 526 40,000  Level FlightAware ADS-B
Fri 01:42:37 PM 39.6943 -108.4777 303° West 457 526 40,000  Level FlightAware ADS-B
Fri 01:43:11 PM 39.7322 -108.5545 303° West 456 525 40,000  Level FlightAware ADS-B
Fri 01:43:41 PM 39.7664 -108.6236 303° West 457 526 40,000  Level FlightAware ADS-B
Fri 01:44:14 PM 39.8035 -108.6981 303° West 456 525 40,000  Level FlightAware ADS-B
Fri 01:44:44 PM 39.8364 -108.7649 303° West 456 525 40,000  Level FlightAware ADS-B
Fri 01:45:25 PM 39.8848 -108.8639 303° West 456 525 40,000  Level FlightAware ADS-B
Fri 01:46:08 PM 39.9294 -108.9556 303° West 457 526 40,000  Level FlightAware ADS-B
Fri 01:46:45 PM 39.9751 -109.0474 303° West 458 527 40,000  Level FlightAware ADS-B (KGUC)
Fri 01:47:15 PM 40.0104 -109.1188 302° West 457 526 40,000  Level FlightAware ADS-B
Fri 01:48:00 PM 40.0583 -109.2180 302° West 456 525 40,000  Level FlightAware ADS-B
Fri 01:48:31 PM 40.0951 -109.2941 302° West 456 525 40,000  Level FlightAware ADS-B
Fri 01:48:41 PM 40.0955 -109.2950 302° West 456 525 40,000  Level FlightAware ADS-B (KGUC)
Fri 01:49:17 PM 40.1380 -109.3792 306° West 461 531 40,000  Level FlightAware ADS-B
Fri 01:49:48 PM 40.1877 -109.4662 308° West 463 533 40,000  Level FlightAware ADS-B
Fri 01:50:36 PM 40.2492 -109.5739 306° West 464 534 40,000  Level FlightAware ADS-B
Fri 01:51:09 PM 40.2119 -109.5077 306° West 464 534 40,000  Level FlightAware ADS-B
Fri 01:52:03 PM 40.3515 -109.7567 306° West 463 533 40,000  Level FlightAware ADS-B
Fri 01:52:41 PM 40.4052 -109.8523 306° West 464 534 40,000  Level FlightAware ADS-B
Fri 01:53:22 PM 40.4616 -109.9534 306° West 468 539 40,000  Level FlightAware ADS-B
Fri 01:53:54 PM 40.4939 -110.0111 306° West 470 541 40,000  Level FlightAware ADS-B
Fri 01:54:29 PM 40.5470 -110.1059 307° West 468 539 40,000  Level FlightAware ADS-B
Fri 01:54:59 PM 40.5860 -110.1761 306° West 468 539 40,000 88 Level FlightAware ADS-B
Fri 01:55:37 PM 40.6330 -110.2618 306° West 468 539 40,100  Climbing FlightAware ADS-B
Fri 01:56:13 PM 40.6667 -110.3227 306° West 471 542 40,000 -90 Descending FlightAware ADS-B
Fri 01:56:44 PM 40.7114 -110.4042 306° West 468 539 40,000  Level FlightAware ADS-B
Fri 01:57:16 PM 40.7585 -110.4901 306° West 463 533 40,000  Level FlightAware ADS-B
Fri 01:57:47 PM 40.7955 -110.5569 306° West 469 540 40,000  Level FlightAware ADS-B
Fri 01:58:28 PM 40.8479 -110.6524 306° West 472 543 40,000  Level FlightAware ADS-B
Fri 01:59:08 PM 40.8994 -110.7464 306° West 473 544 40,000  Level FlightAware ADS-B
Fri 01:59:42 PM 40.9437 -110.8288 305° West 474 545 40,000  Level FlightAware ADS-B
Fri 02:00:22 PM 40.9920 -110.9185 306° West 477 549 40,000  Level FlightAware ADS-B
Fri 02:00:53 PM 41.0349 -110.9974 306° West 475 547 40,000  Level FlightAware ADS-B
Fri 02:01:23 PM 41.0726 -111.0680 305° West 474 545 40,000  Level FlightAware ADS-B
Fri 02:01:59 PM 41.1188 -111.1537 306° West 473 544 40,000  Level FlightAware ADS-B
Fri 02:02:39 PM 41.1702 -111.2467 308° West 476 548 40,000  Level FlightAware ADS-B
Fri 02:03:12 PM 41.2153 -111.3215 309° West 471 542 40,000  Level FlightAware ADS-B
Fri 02:03:52 PM 41.2721 -111.4136 308° West 474 545 40,000  Level FlightAware ADS-B
Fri 02:04:31 PM 41.3267 -111.5023 310° West 479 551 40,000  Level FlightAware ADS-B
Fri 02:05:02 PM 41.3605 -111.5556 310° West 479 551 40,000  Level FlightAware ADS-B
Fri 02:05:42 PM 41.4271 -111.6638 308° West 476 548 40,000  Level FlightAware ADS-B
Fri 02:06:01 PM 41.4524 -111.7065 307° West 477 549 40,000 150 Level FlightAware ADS-B (KBTF)
Fri 02:06:22 PM 41.4815 -111.7553 308° West 478 550 40,100  Climbing FlightAware ADS-B (KBTF)
Fri 02:07:04 PM 41.5381 -111.8472 310° West 484 557 40,000 -80 Descending FlightAware ADS-B
Fri 02:07:37 PM 41.5890 -111.9286 310° West 483 556 40,000  Level FlightAware ADS-B
Fri 02:08:26 PM 41.6563 -112.0397 309° West 481 554 40,000  Level FlightAware ADS-B
Fri 02:09:09 PM 41.7169 -112.1407 309° West 481 554 40,000  Level FlightAware ADS-B (KBTF)
Fri 02:09:41 PM 41.7623 -112.2137 310° West 481 554 40,000  Level FlightAware ADS-B
Fri 02:10:11 PM 41.8047 -112.2837 308° West 479 551 40,000  Level FlightAware ADS-B
Fri 02:10:42 PM 41.8437 -112.3553 304° West 477 549 40,000  Level FlightAware ADS-B
Fri 02:11:15 PM 41.8832 -112.4356 304° West 474 545 40,000  Level FlightAware ADS-B
Fri 02:11:46 PM 41.9214 -112.5126 304° West 477 549 40,000  Level FlightAware ADS-B
Fri 02:12:17 PM 41.9547 -112.5800 304° West 475 547 40,000  Level FlightAware ADS-B
Fri 02:12:22 PM 41.9655 -112.6016 303° West 470 541 40,000  Level FlightAware ADS-B
Fri 02:12:58 PM 41.9988 -112.6687 304° West 475 547 40,000  Level FlightAware ADS-B
Fri 02:13:28 PM 42.0448 -112.7647 300° West 474 545 40,000  Level FlightAware ADS-B
Fri 02:13:59 PM 42.0769 -112.8351 304° West 477 549 40,000  Level FlightAware ADS-B
Fri 02:14:31 PM 42.0978 -112.8754 305° West 477 549 40,000  Level FlightAware ADS-B
Fri 02:14:59 PM 42.1534 -112.9835 304° West 477 549 40,000  Level FlightAware ADS-B
Fri 02:15:30 PM 42.1931 -113.0643 303° West 474 545 40,000  Level FlightAware ADS-B (KBTF)
Fri 02:16:03 PM 42.2336 -113.1467 303° West 478 550 40,000  Level FlightAware ADS-B
Fri 02:16:36 PM 42.2729 -113.2271 303° West 477 549 40,000  Level FlightAware ADS-B
Fri 02:17:07 PM 42.3110 -113.3058 303° West 478 550 40,000  Level FlightAware ADS-B
Fri 02:17:38 PM 42.3480 -113.3821 303° West 477 549 40,000  Level FlightAware ADS-B
Fri 02:18:08 PM 42.3829 -113.4539 303° West 479 551 40,000  Level FlightAware ADS-B
Fri 02:18:41 PM 42.4251 -113.5413 303° West 476 548 40,000  Level FlightAware ADS-B
Fri 02:19:12 PM 42.4616 -113.6165 303° West 480 552 40,000  Level FlightAware ADS-B
Fri 02:19:44 PM 42.4998 -113.6968 303° West 480 552 40,000  Level FlightAware ADS-B
Fri 02:20:15 PM 42.5354 -113.7710 303° West 479 551 40,000  Level FlightAware ADS-B
Fri 02:20:48 PM 42.5756 -113.8541 305° West 479 551 40,000  Level FlightAware ADS-B
Fri 02:21:31 PM 42.6369 -113.9626 308° West 477 549 40,000  Level FlightAware ADS-B (KBTF)
Fri 02:22:10 PM 42.6888 -114.0524 308° West 481 554 40,000  Level FlightAware ADS-B
Fri 02:22:43 PM 42.7295 -114.1239 308° West 481 554 40,000  Level FlightAware ADS-B
Fri 02:22:53 PM 42.7473 -114.1549 308° West 482 555 40,000  Level FlightAware ADS-B
Fri 02:23:24 PM 42.7896 -114.2288 308° West 481 554 40,000  Level FlightAware ADS-B
Fri 02:24:10 PM 42.8543 -114.3416 307° West 478 550 40,000  Level FlightAware ADS-B (KBTF)
Fri 02:24:53 PM 42.9128 -114.4439 307° West 477 549 40,000  Level FlightAware ADS-B (KBTF)
Fri 02:25:35 PM 42.9697 -114.5438 307° West 478 550 40,000 -77 Level FlightAware ADS-B (KBTF)
Fri 02:26:11 PM 43.0189 -114.6301 308° West 479 551 39,900  Descending FlightAware ADS-B (KBTF)
Fri 02:26:55 PM 43.0780 -114.7338 307° West 478 550 40,000 71 Climbing FlightAware ADS-B (KBTF)
Fri 02:27:35 PM 43.1328 -114.8312 307° West 485 558 40,000  Level FlightAware ADS-B (KBTF)
Fri 02:28:48 PM 43.2264 -115.0044 307° West 482 555 40,000  Level Salt Lake Center
Fri 02:29:50 PM 43.3067 -115.1497 307° West 480 552 40,000  Level Salt Lake Center
Fri 02:30:52 PM 43.3892 -115.2944 308° West 480 552 40,000 -48 Level Salt Lake Center
Fri 02:31:54 PM 43.4767 -115.4336 311° West 480 552 39,900  Descending Salt Lake Center
Fri 02:32:56 PM 43.5692 -115.5672 314° West 481 554 40,000 48 Climbing Salt Lake Center
Fri 02:33:58 PM 43.6594 -115.7031 313° West 482 555 40,000  Level Salt Lake Center
Fri 02:35:00 PM 43.7686 -115.8686 312° West 484 557 40,000  Level Salt Lake Center
Fri 02:36:02 PM 43.8583 -116.0039 313° West 478 550 40,000  Level Salt Lake Center
Fri 02:37:04 PM 43.9481 -116.1394 313° West 477 549 40,000  Level Salt Lake Center
Fri 02:38:06 PM 44.0381 -116.2764 312° West 476 548 40,000  Level Salt Lake Center
Fri 02:39:08 PM 44.1275 -116.4133 312° West 476 548 40,000  Level Salt Lake Center
Fri 02:40:10 PM 44.2169 -116.5500 312° West 474 545 40,000  Level Salt Lake Center
Fri 02:41:12 PM 44.3064 -116.6886 312° West 475 547 40,000  Level Salt Lake Center
Fri 02:42:14 PM 44.3944 -116.8264 312° West 474 545 40,000  Level Salt Lake Center
Fri 02:43:16 PM 44.5011 -116.9917 312° West 474 545 40,000  Level Salt Lake Center
Fri 02:44:18 PM 44.5886 -117.1306 312° West 475 547 40,000  Level Salt Lake Center
Fri 02:45:20 PM 44.6806 -117.2669 313° West 475 547 40,000  Level Salt Lake Center
Fri 02:46:22 PM 44.7650 -117.4100 310° West 476 548 40,000  Level Salt Lake Center
Fri 02:47:24 PM 44.8528 -117.5500 312° West 476 548 40,000  Level Salt Lake Center
Fri 02:48:26 PM 44.9417 -117.6894 312° West 476 548 40,000  Level Salt Lake Center
Fri 02:49:28 PM 45.0458 -117.8611 311° West 478 550 40,000  Level Salt Lake Center
Fri 02:50:30 PM 45.1308 -118.0025 310° West 476 548 40,000  Level Salt Lake Center
Fri 02:51:32 PM 45.2058 -118.1250 311° West 475 547 40,000  Level Salt Lake Center
Fri 02:52:34 PM 45.3117 -118.2917 312° West 474 545 40,000  Level Salt Lake Center
Fri 02:53:36 PM 45.3972 -118.4356 310° West 475 547 40,000  Level Salt Lake Center
Fri 02:54:34 PM 45.4825 -118.5783 310° West 477 549 40,000  Level Seattle Center
Fri 03:00:41 PM 46.0136 -119.4730 310° West 479 551 40,000  Level FlightAware ADS-B
Fri 03:01:08 PM 46.0537 -119.5420 310° West 474 545 40,000  Level FlightAware ADS-B
Fri 03:01:20 PM 46.0655 -119.5622 310° West 474 545 40,000  Level FlightAware ADS-B
Fri 03:01:50 PM 46.1126 -119.6430 310° West 474 545 40,000  Level FlightAware ADS-B
Fri 03:02:01 PM 46.1244 -119.6638 310° West 475 547 40,000  Level FlightAware ADS-B
Fri 03:02:41 PM 46.1794 -119.7589 310° West 475 547 40,000  Level FlightAware ADS-B
Fri 03:03:21 PM 46.2160 -119.8224 310° West 482 555 40,000  Level FlightAware ADS-B
Fri 03:04:01 PM 46.2938 -119.9578 309° West 473 544 40,000  Level FlightAware ADS-B
Fri 03:04:08 PM 46.3060 -119.9791 310° West 472 543 40,000  Level FlightAware ADS-B (CYVR)
Fri 03:04:41 PM 46.3488 -120.0543 310° West 470 541 40,000  Level FlightAware ADS-B
Fri 03:04:45 PM 46.3577 -120.0700 310° West 470 541 40,000 -343 Level FlightAware ADS-B
Fri 03:05:16 PM 46.4001 -120.1440 309° West 469 540 39,800 -333 Descending FlightAware ADS-B
Fri 03:05:21 PM 46.3869 -120.1209 310° West 467 537 39,800 -600 Level FlightAware ADS-B
Fri 03:05:46 PM 46.4408 -120.2150 309° West 458 527 39,500 -750 Descending FlightAware ADS-B
Fri 03:06:01 PM 46.3869 -120.1209 309° West 458 527 39,300 -1,161 Descending FlightAware ADS-B
Fri 03:06:17 PM 46.4826 -120.2890 309° West 457 526 38,900 -1,068 Descending FlightAware ADS-B
Fri 03:07:14 PM 46.5575 -120.4230 309° West 456 525 38,000 -1,216 Descending FlightAware ADS-B
Fri 03:07:31 PM 46.5776 -120.4610 307° West 445 512 37,400 -2,809 Descending FlightAware ADS-B
Fri 03:08:01 PM 46.6135 -120.5350 305° West 446 513 35,800 -3,400 Descending FlightAware ADS-B
Fri 03:08:31 PM 46.6495 -120.6100 305° West 449 517 34,000 -3,488 Descending FlightAware ADS-B
Fri 03:08:44 PM 46.3060 -119.9791 310° West 472 543 33,300 -3,484 Descending FlightAware ADS-B (CYVR)
Fri 03:09:02 PM 46.6853 -120.6850 305° West 451 519 32,200 -3,000 Descending FlightAware ADS-B
Fri 03:09:34 PM 46.7238 -120.7670 305° West 458 527 30,800 -2,582 Descending FlightAware ADS-B
Fri 03:10:21 PM 46.7806 -120.8870 305° West 449 517 28,800 -2,538 Descending FlightAware ADS-B
Fri 03:10:52 PM 46.8160 -120.9620 305° West 436 502 27,500 -2,459 Descending FlightAware ADS-B
Fri 03:11:22 PM 46.8497 -121.0330 304° West 425 489 26,300 -2,400 Descending FlightAware ADS-B
Fri 03:11:52 PM 46.8826 -121.1040 304° West 417 480 25,100 -2,400 Descending FlightAware ADS-B
Fri 03:12:22 PM 46.9152 -121.1730 304° West 412 474 23,900 -2,400 Descending FlightAware ADS-B
Fri 03:12:52 PM 46.9474 -121.2420 304° West 406 467 22,700 -2,361 Descending FlightAware ADS-B
Fri 03:13:23 PM 46.9790 -121.3100 304° West 400 460 21,500 -2,361 Descending FlightAware ADS-B
Fri 03:13:53 PM 47.0099 -121.3770 304° West 390 449 20,300 -1,700 Descending FlightAware ADS-B
Fri 03:14:23 PM 47.0395 -121.4410 304° West 365 420 19,800 -837 Descending FlightAware ADS-B
Fri 03:14:36 PM 47.0506 -121.4646 304° West 355 409 19,700 -400 Descending FlightAware ADS-B (CYVR)
Fri 03:14:53 PM 47.0671 -121.5000 304° West 346 398 19,600 -1,021 Descending FlightAware ADS-B
Fri 03:15:23 PM 47.0939 -121.5580 304° West 341 392 18,900 -1,455 Descending FlightAware ADS-B
Fri 03:15:26 PM 47.0960 -121.5629 304° West 340 391 18,800 -1,742 Descending FlightAware ADS-B (CYVR)
Fri 03:15:54 PM 47.1202 -121.6150 304° West 334 384 18,000 -1,759 Descending FlightAware ADS-B
Fri 03:16:24 PM 47.1462 -121.6720 304° West 328 377 17,100 -1,700 Descending FlightAware ADS-B
Fri 03:16:54 PM 47.1716 -121.7270 304° West 323 372 16,300 -1,700 Descending FlightAware ADS-B
Fri 03:17:24 PM 47.1967 -121.7820 304° West 324 373 15,400 -1,692 Descending FlightAware ADS-B
Fri 03:17:33 PM 47.2040 -121.7985 304° West 323 372 15,200 -1,200 Descending FlightAware ADS-B (CYVR)
Fri 03:17:54 PM 47.2216 -121.8360 304° West 318 366 14,800 -1,154 Descending FlightAware ADS-B
Fri 03:18:25 PM 47.2467 -121.8920 304° West 314 361 14,200 -984 Descending FlightAware ADS-B
Fri 03:18:55 PM 47.2707 -121.9450 304° West 311 358 13,800 -885 Descending FlightAware ADS-B
Fri 03:19:26 PM 47.2949 -121.9980 304° West 309 356 13,300 -941 Descending FlightAware ADS-B
Fri 03:19:46 PM 47.3110 -122.0337 304° West 308 354 13,000 -857 Descending FlightAware ADS-B (CYVR)
Fri 03:19:54 PM 47.3172 -122.0470 304° West 307 353 12,900 -947 Descending FlightAware ADS-B
Fri 03:20:24 PM 47.3407 -122.1000 304° West 299 344 12,400 -964 Descending FlightAware ADS-B
Fri 03:20:50 PM 47.3601 -122.1420 303° West 287 330 12,000 -882 Descending FlightAware ADS-B
Fri 03:20:58 PM 47.3658 -122.1560 300° West 283 326 11,900 -1,455 Descending FlightAware ADS-B
Fri 03:21:23 PM 47.3809 -122.1970 298° West 283 326 11,200 -1,091 Descending FlightAware ADS-B
Fri 03:21:53 PM 47.4002 -122.2490 299° West 281 323 10,900 -698 Descending FlightAware ADS-B
Fri 03:22:06 PM 47.4072 -122.2679 299° West 275 316 10,700 -800 Descending FlightAware ADS-B (CYVR)
Fri 03:22:23 PM 47.4186 -122.2980 299° West 268 308 10,500 -1,105 Descending FlightAware ADS-B
Fri 03:22:44 PM 47.4307 -122.3310 299° West 265 305 10,000 -1,364 Descending FlightAware ADS-B
Fri 03:22:45 PM 47.4310 -122.3321 299° West 265 305 10,000 -1,600 Level FlightAware ADS-B (CYVR)
Fri 03:22:59 PM 47.4396 -122.3560 299° West 265 305 9,600 -1,765 Descending FlightAware ADS-B
Fri 03:23:02 PM 47.4408 -122.3589 299° West 266 306 9,500 -1,125 Descending FlightAware ADS-B (CYVR)
Fri 03:23:15 PM 47.4489 -122.3800 299° West 265 305 9,300 -1,200 Descending FlightAware ADS-B
Fri 03:23:22 PM 47.4535 -122.3930 300° West 263 303 9,100 -1,500 Descending FlightAware ADS-B
Fri 03:23:27 PM 47.4564 -122.3990 304° West 263 303 9,000 -750 Descending FlightAware ADS-B
Fri 03:23:30 PM 47.4591 -122.4040 310° West 262 302 9,000  Level FlightAware ADS-B
Fri 03:23:34 PM 47.4626 -122.4090 317° Northwest 266 306 9,000  Level FlightAware ADS-B
Fri 03:23:38 PM 47.4665 -122.4140 322° Northwest 269 310 9,000  Level FlightAware ADS-B
Fri 03:23:42 PM 47.4708 -122.4180 325° Northwest 269 310 9,000  Level FlightAware ADS-B
Fri 03:23:53 PM 47.4817 -122.4280 329° Northwest 268 308 9,000  Level FlightAware ADS-B
Fri 03:24:08 PM 47.4977 -122.4420 330° Northwest 268 308 9,000 -273 Level FlightAware ADS-B
Fri 03:24:15 PM 47.5035 -122.4471 329° Northwest 267 307 8,900 -750 Descending FlightAware ADS-B (CYVR)
Fri 03:24:24 PM 47.5147 -122.4570 329° Northwest 266 306 8,800 -1,500 Descending FlightAware ADS-B
Fri 03:24:31 PM 47.5207 -122.4621 329° Northwest 267 307 8,500 -1,600 Descending FlightAware ADS-B (CYVR)
Fri 03:24:39 PM 47.5313 -122.4710 329° Northwest 267 307 8,400 -1,000 Descending FlightAware ADS-B
Fri 03:24:55 PM 47.5476 -122.4860 330° Northwest 264 304 8,100 -1,355 Descending FlightAware ADS-B
Fri 03:25:10 PM 47.5635 -122.4990 330° Northwest 262 302 7,700 -1,600 Descending FlightAware ADS-B
Fri 03:25:25 PM 47.5794 -122.5130 330° Northwest 261 300 7,300 -2,000 Descending FlightAware ADS-B
Fri 03:25:40 PM 47.5949 -122.5270 330° Northwest 255 293 6,700 -2,400 Descending FlightAware ADS-B
Fri 03:25:55 PM 47.6100 -122.5400 330° Northwest 249 287 6,100 -2,154 Descending FlightAware ADS-B
Fri 03:26:19 PM 47.6342 -122.5540 334° Northwest 242 278 5,300 -2,000 Descending FlightAware ADS-B
Fri 03:26:22 PM 47.6377 -122.5550 354° North 227 261 5,200 -1,920 Descending FlightAware ADS-B
Fri 03:26:44 PM 47.6589 -122.5560 354° North 227 261 4,500 -2,000 Descending FlightAware ADS-B
Fri 03:27:22 PM 47.6925 -122.5500 28° Northeast 193 222 3,200 -2,000 Descending FlightAware ADS-B
Fri 03:27:47 PM 47.6987 -122.5220 101° East 178 205 2,400 -1,800 Descending FlightAware ADS-B
Fri 03:27:52 PM 47.6976 -122.5170 108° East 180 207 2,300 -857 Descending FlightAware ADS-B
Fri 03:28:01 PM 47.6949 -122.5060 112° Southeast 178 205 2,200 -462 Descending FlightAware ADS-B
Fri 03:28:18 PM 47.6894 -122.4870 113° Southeast 174 200 2,100  Descending FlightAware ADS-B
Fri 03:28:42 PM 47.6817 -122.4600 113° Southeast 176 203 2,200 81 Climbing FlightAware ADS-B
Fri 03:29:32 PM 47.6610 -122.4120 147° Southeast 167 192 2,200  Level FlightAware ADS-B
Fri 03:29:51 PM 47.6485 -122.4030 152° Southeast 164 189 2,200  Level FlightAware ADS-B
Fri 03:30:10 PM 47.6364 -122.3930 150° Southeast 150 173 2,200 -207 Level FlightAware ADS-B
Fri 03:30:20 PM 47.6304 -122.3880 150° Southeast 146 168 2,100 -692 Descending FlightAware ADS-B
Fri 03:30:36 PM 47.6216 -122.3800 150° Southeast 138 159 1,900 -769 Descending FlightAware ADS-B
Fri 03:30:59 PM 47.6090 -122.3690 150° Southeast 135 155 1,600 -762 Descending FlightAware ADS-B
Fri 03:31:39 PM 47.5878 -122.3520 150° Southeast 135 155 1,100 -730 Descending FlightAware ADS-B
Fri 03:32:13 PM 47.5708 -122.3383 150° Southeast 135 155 700 -706 Descending Seattle Center

Login

Don't have an account? Register now (free) for customized features, flight alerts, and more!